Forside
METAR-TAF:

METAR-TAF

Lufthavne :

Mauritius, Mauritius

Breddekreds: 20-26S, længdekreds: 057-40E, højde: 55 m

Aktuelle vejr

Denne rapport blev lavet for 10 minutter siden, kl. 12:00 UTC
Vind 10 kt fra øst
Temperatur 30°C
Fugtighed 62%
Tryk 1015 hPa
Sigt 10 km eller mere
Nogle få skyer i en højde af 1900 ft
Brudte skyer i en højde af 25000 ft

METAR: FIMP 221200Z 08010KT 9999 FEW019 BKN250 30/22 Q1015

Tid: 16:10 (12:10 UTC)

Vejrudsigter

Denne rapport blev lavet for 50 minutter siden, kl. 11:20 UTC
Foreløbig gælder fra 22 på 12 UTC til 23 på 18 UTC
Vind 10 kt fra østnordøst
Sigt 10 km eller mere
ingen skyer under 1500m og ingen cumulonimbus
Midlertidig
fra 22 på 18 UTC til 23 på 04 UTC

TAF: FIMP 221120Z 2212/2318 06010KT CAVOK TEMPO 2218/2304 33003

Vejrobservationer og prognoser fra mere end 4000 lufthavne (METAR og TAF).

De gule og røde prikker repræsenterer de meteorologiske stationer.

Flyt musen over at se navnet på stationen.

Så klik over at se vejr observationer og prognoser.

At skifte det kort: Klik på de grønne knapper med et sort kors for at zoome ind; på den grønne knap med en bindestreg for at zoome ud; eller på de grønne pile for tilstødende kort.


METAR-TAF: